sensor_id;sensor_type;location;lat;lon;timestamp;temperature;humidity
3256;DHT22;1640;48.504;9.224;2023-11-21T00:00:48;8.30;99.90
3256;DHT22;1640;48.504;9.224;2023-11-21T00:03:15;8.30;99.90
3256;DHT22;1640;48.504;9.224;2023-11-21T00:05:43;8.30;99.90
3256;DHT22;1640;48.504;9.224;2023-11-21T00:08:11;8.30;99.90
3256;DHT22;1640;48.504;9.224;2023-11-21T00:10:40;8.30;99.90
3256;DHT22;1640;48.504;9.224;2023-11-21T00:13:07;8.30;99.90
3256;DHT22;1640;48.504;9.224;2023-11-21T00:15:35;8.30;99.90
3256;DHT22;1640;48.504;9.224;2023-11-21T00:18:02;8.30;99.90
3256;DHT22;1640;48.504;9.224;2023-11-21T00:20:31;8.40;99.90
3256;DHT22;1640;48.504;9.224;2023-11-21T00:22:58;8.30;99.90
3256;DHT22;1640;48.504;9.224;2023-11-21T00:25:28;8.30;99.90
3256;DHT22;1640;48.504;9.224;2023-11-21T00:27:58;8.40;99.90
3256;DHT22;1640;48.504;9.224;2023-11-21T00:30:27;8.40;99.90
3256;DHT22;1640;48.504;9.224;2023-11-21T00:32:57;8.40;99.90
3256;DHT22;1640;48.504;9.224;2023-11-21T00:35:24;8.40;99.90
3256;DHT22;1640;48.504;9.224;2023-11-21T00:37:52;8.50;99.90
3256;DHT22;1640;48.504;9.224;2023-11-21T00:40:19;8.50;99.90
3256;DHT22;1640;48.504;9.224;2023-11-21T00:42:47;8.50;99.90
3256;DHT22;1640;48.504;9.224;2023-11-21T00:45:16;8.50;99.90
3256;DHT22;1640;48.504;9.224;2023-11-21T00:47:44;8.60;99.90
3256;DHT22;1640;48.504;9.224;2023-11-21T00:50:11;8.60;99.90
3256;DHT22;1640;48.504;9.224;2023-11-21T00:52:39;8.60;99.90
3256;DHT22;1640;48.504;9.224;2023-11-21T00:55:08;8.70;99.90
3256;DHT22;1640;48.504;9.224;2023-11-21T00:57:36;8.70;99.90
3256;DHT22;1640;48.504;9.224;2023-11-21T01:00:06;8.70;99.90
3256;DHT22;1640;48.504;9.224;2023-11-21T01:02:37;8.70;99.90
3256;DHT22;1640;48.504;9.224;2023-11-21T01:05:05;8.70;99.90
3256;DHT22;1640;48.504;9.224;2023-11-21T01:07:34;8.80;99.90
3256;DHT22;1640;48.504;9.224;2023-11-21T01:10:03;8.80;99.90
3256;DHT22;1640;48.504;9.224;2023-11-21T01:12:34;8.80;99.90
3256;DHT22;1640;48.504;9.224;2023-11-21T01:15:02;8.80;99.90
3256;DHT22;1640;48.504;9.224;2023-11-21T01:17:30;8.80;99.90
3256;DHT22;1640;48.504;9.224;2023-11-21T01:19:59;8.80;99.90
3256;DHT22;1640;48.504;9.224;2023-11-21T01:22:27;8.90;99.90
3256;DHT22;1640;48.504;9.224;2023-11-21T01:24:55;8.90;99.90
3256;DHT22;1640;48.504;9.224;2023-11-21T01:27:22;8.90;99.90
3256;DHT22;1640;48.504;9.224;2023-11-21T01:29:50;8.90;99.90
3256;DHT22;1640;48.504;9.224;2023-11-21T01:32:19;8.90;99.90
3256;DHT22;1640;48.504;9.224;2023-11-21T01:34:47;8.80;99.90
3256;DHT22;1640;48.504;9.224;2023-11-21T01:37:16;8.80;99.90
3256;DHT22;1640;48.504;9.224;2023-11-21T01:39:44;8.80;99.90
3256;DHT22;1640;48.504;9.224;2023-11-21T01:42:13;8.80;99.90
3256;DHT22;1640;48.504;9.224;2023-11-21T01:44:40;8.80;99.90
3256;DHT22;1640;48.504;9.224;2023-11-21T01:47:09;8.80;99.90
3256;DHT22;1640;48.504;9.224;2023-11-21T01:49:37;8.70;99.90
3256;DHT22;1640;48.504;9.224;2023-11-21T01:52:06;8.60;99.90
3256;DHT22;1640;48.504;9.224;2023-11-21T01:54:36;8.50;99.90
3256;DHT22;1640;48.504;9.224;2023-11-21T01:57:04;8.40;99.90
3256;DHT22;1640;48.504;9.224;2023-11-21T01:59:34;8.40;99.90
3256;DHT22;1640;48.504;9.224;2023-11-21T02:02:03;8.40;99.90
3256;DHT22;1640;48.504;9.224;2023-11-21T02:04:31;8.30;99.90
3256;DHT22;1640;48.504;9.224;2023-11-21T02:06:59;8.30;99.90
3256;DHT22;1640;48.504;9.224;2023-11-21T02:09:27;8.30;99.90
3256;DHT22;1640;48.504;9.224;2023-11-21T02:11:58;8.30;99.90
3256;DHT22;1640;48.504;9.224;2023-11-21T02:14:26;8.40;99.90
3256;DHT22;1640;48.504;9.224;2023-11-21T02:16:55;8.40;99.90
3256;DHT22;1640;48.504;9.224;2023-11-21T02:19:23;8.40;99.90
3256;DHT22;1640;48.504;9.224;2023-11-21T02:21:52;8.40;99.90
3256;DHT22;1640;48.504;9.224;2023-11-21T02:24:22;8.40;99.90
3256;DHT22;1640;48.504;9.224;2023-11-21T02:26:51;8.40;99.90
3256;DHT22;1640;48.504;9.224;2023-11-21T02:29:19;8.40;99.90
3256;DHT22;1640;48.504;9.224;2023-11-21T02:31:51;8.30;99.90
3256;DHT22;1640;48.504;9.224;2023-11-21T02:34:21;8.30;99.90
3256;DHT22;1640;48.504;9.224;2023-11-21T02:36:49;8.20;99.90
3256;DHT22;1640;48.504;9.224;2023-11-21T02:39:17;8.10;99.90
3256;DHT22;1640;48.504;9.224;2023-11-21T02:41:49;8.10;99.90
3256;DHT22;1640;48.504;9.224;2023-11-21T02:44:17;8.00;99.90
3256;DHT22;1640;48.504;9.224;2023-11-21T02:46:45;8.10;99.90
3256;DHT22;1640;48.504;9.224;2023-11-21T02:49:13;8.20;99.90
3256;DHT22;1640;48.504;9.224;2023-11-21T02:51:41;8.20;99.90
3256;DHT22;1640;48.504;9.224;2023-11-21T02:54:08;8.30;99.90
3256;DHT22;1640;48.504;9.224;2023-11-21T02:56:36;8.40;99.90
3256;DHT22;1640;48.504;9.224;2023-11-21T02:59:07;8.40;99.90
3256;DHT22;1640;48.504;9.224;2023-11-21T03:01:35;8.40;99.90
3256;DHT22;1640;48.504;9.224;2023-11-21T03:04:02;8.50;99.90
3256;DHT22;1640;48.504;9.224;2023-11-21T03:06:30;8.50;99.90
3256;DHT22;1640;48.504;9.224;2023-11-21T03:08:58;8.50;99.90
3256;DHT22;1640;48.504;9.224;2023-11-21T03:11:26;8.50;99.90
3256;DHT22;1640;48.504;9.224;2023-11-21T03:13:53;8.50;99.90
3256;DHT22;1640;48.504;9.224;2023-11-21T03:16:22;8.50;99.90
3256;DHT22;1640;48.504;9.224;2023-11-21T03:18:50;8.50;99.90
3256;DHT22;1640;48.504;9.224;2023-11-21T03:21:18;8.60;99.90
3256;DHT22;1640;48.504;9.224;2023-11-21T03:23:46;8.60;99.90
3256;DHT22;1640;48.504;9.224;2023-11-21T03:26:14;8.50;99.90
3256;DHT22;1640;48.504;9.224;2023-11-21T03:28:42;8.50;99.90
3256;DHT22;1640;48.504;9.224;2023-11-21T03:31:10;8.50;99.90
3256;DHT22;1640;48.504;9.224;2023-11-21T03:33:39;8.60;99.90
3256;DHT22;1640;48.504;9.224;2023-11-21T03:36:08;8.60;99.90
3256;DHT22;1640;48.504;9.224;2023-11-21T03:38:36;8.60;99.90
3256;DHT22;1640;48.504;9.224;2023-11-21T03:41:05;8.60;99.90
3256;DHT22;1640;48.504;9.224;2023-11-21T03:43:32;8.70;99.90
3256;DHT22;1640;48.504;9.224;2023-11-21T03:46:00;8.70;99.90
3256;DHT22;1640;48.504;9.224;2023-11-21T03:48:28;8.70;99.90
3256;DHT22;1640;48.504;9.224;2023-11-21T03:50:57;8.70;99.90
3256;DHT22;1640;48.504;9.224;2023-11-21T03:53:25;8.80;99.90
3256;DHT22;1640;48.504;9.224;2023-11-21T03:55:53;8.70;99.90
3256;DHT22;1640;48.504;9.224;2023-11-21T03:58:20;8.60;99.90
3256;DHT22;1640;48.504;9.224;2023-11-21T04:00:48;8.60;99.90
3256;DHT22;1640;48.504;9.224;2023-11-21T04:03:16;8.60;99.90
3256;DHT22;1640;48.504;9.224;2023-11-21T04:05:43;8.60;99.90
3256;DHT22;1640;48.504;9.224;2023-11-21T04:08:13;8.60;99.90
3256;DHT22;1640;48.504;9.224;2023-11-21T04:10:41;8.60;99.90
3256;DHT22;1640;48.504;9.224;2023-11-21T04:13:09;8.60;99.90
3256;DHT22;1640;48.504;9.224;2023-11-21T04:15:36;8.60;99.90
3256;DHT22;1640;48.504;9.224;2023-11-21T04:18:04;8.70;99.90
3256;DHT22;1640;48.504;9.224;2023-11-21T04:20:32;8.70;99.90
3256;DHT22;1640;48.504;9.224;2023-11-21T04:23:00;8.70;99.90
3256;DHT22;1640;48.504;9.224;2023-11-21T04:25:29;8.70;99.90
3256;DHT22;1640;48.504;9.224;2023-11-21T04:27:56;8.70;99.90
3256;DHT22;1640;48.504;9.224;2023-11-21T04:30:24;8.70;99.90
3256;DHT22;1640;48.504;9.224;2023-11-21T04:32:52;8.70;99.90
3256;DHT22;1640;48.504;9.224;2023-11-21T04:35:19;8.60;99.90
3256;DHT22;1640;48.504;9.224;2023-11-21T04:37:47;8.60;99.90
3256;DHT22;1640;48.504;9.224;2023-11-21T04:40:15;8.60;99.90
3256;DHT22;1640;48.504;9.224;2023-11-21T04:42:44;8.70;99.90
3256;DHT22;1640;48.504;9.224;2023-11-21T04:45:13;8.70;99.90
3256;DHT22;1640;48.504;9.224;2023-11-21T04:47:40;8.70;99.90
3256;DHT22;1640;48.504;9.224;2023-11-21T04:50:10;8.70;99.90
3256;DHT22;1640;48.504;9.224;2023-11-21T04:52:37;8.70;99.90
3256;DHT22;1640;48.504;9.224;2023-11-21T04:55:05;8.70;99.90
3256;DHT22;1640;48.504;9.224;2023-11-21T04:57:36;8.70;99.90
3256;DHT22;1640;48.504;9.224;2023-11-21T05:00:06;8.80;99.90
3256;DHT22;1640;48.504;9.224;2023-11-21T05:02:34;8.70;99.90
3256;DHT22;1640;48.504;9.224;2023-11-21T05:05:02;8.70;99.90
3256;DHT22;1640;48.504;9.224;2023-11-21T05:07:32;8.80;99.90
3256;DHT22;1640;48.504;9.224;2023-11-21T05:10:01;8.80;99.90
3256;DHT22;1640;48.504;9.224;2023-11-21T05:12:34;8.70;99.90
3256;DHT22;1640;48.504;9.224;2023-11-21T05:15:06;8.80;99.90
3256;DHT22;1640;48.504;9.224;2023-11-21T05:17:36;8.80;99.90
3256;DHT22;1640;48.504;9.224;2023-11-21T05:20:06;8.80;99.90
3256;DHT22;1640;48.504;9.224;2023-11-21T05:22:36;8.70;99.90
3256;DHT22;1640;48.504;9.224;2023-11-21T05:25:04;8.60;99.90
3256;DHT22;1640;48.504;9.224;2023-11-21T05:27:33;8.70;99.90
3256;DHT22;1640;48.504;9.224;2023-11-21T05:30:02;8.70;99.90
3256;DHT22;1640;48.504;9.224;2023-11-21T05:32:32;8.80;99.90
3256;DHT22;1640;48.504;9.224;2023-11-21T05:35:00;8.80;99.90
3256;DHT22;1640;48.504;9.224;2023-11-21T05:37:28;8.90;99.90
3256;DHT22;1640;48.504;9.224;2023-11-21T05:39:56;9.00;99.90
3256;DHT22;1640;48.504;9.224;2023-11-21T05:42:24;8.90;99.90
3256;DHT22;1640;48.504;9.224;2023-11-21T05:44:51;8.90;99.90
3256;DHT22;1640;48.504;9.224;2023-11-21T05:47:19;8.80;99.90
3256;DHT22;1640;48.504;9.224;2023-11-21T05:49:49;8.80;99.90
3256;DHT22;1640;48.504;9.224;2023-11-21T05:52:18;8.70;99.90
3256;DHT22;1640;48.504;9.224;2023-11-21T05:54:46;8.70;99.90
3256;DHT22;1640;48.504;9.224;2023-11-21T05:57:14;8.60;99.90
3256;DHT22;1640;48.504;9.224;2023-11-21T05:59:42;8.60;99.90
3256;DHT22;1640;48.504;9.224;2023-11-21T06:02:09;8.60;99.90
3256;DHT22;1640;48.504;9.224;2023-11-21T06:04:37;8.60;99.90
3256;DHT22;1640;48.504;9.224;2023-11-21T06:07:06;8.50;99.90
3256;DHT22;1640;48.504;9.224;2023-11-21T06:09:34;8.50;99.90
3256;DHT22;1640;48.504;9.224;2023-11-21T06:12:03;8.50;99.90
3256;DHT22;1640;48.504;9.224;2023-11-21T06:14:32;8.50;99.90
3256;DHT22;1640;48.504;9.224;2023-11-21T06:17:01;8.50;99.90
3256;DHT22;1640;48.504;9.224;2023-11-21T06:19:30;8.50;99.90
3256;DHT22;1640;48.504;9.224;2023-11-21T06:21:57;8.50;99.90
3256;DHT22;1640;48.504;9.224;2023-11-21T06:24:27;8.50;99.90
3256;DHT22;1640;48.504;9.224;2023-11-21T06:26:55;8.50;99.90
3256;DHT22;1640;48.504;9.224;2023-11-21T06:29:22;8.50;99.90
3256;DHT22;1640;48.504;9.224;2023-11-21T06:31:50;8.40;99.90
3256;DHT22;1640;48.504;9.224;2023-11-21T06:34:18;8.40;99.90
3256;DHT22;1640;48.504;9.224;2023-11-21T06:36:59;8.30;99.90
3256;DHT22;1640;48.504;9.224;2023-11-21T06:40:07;8.30;99.90
3256;DHT22;1640;48.504;9.224;2023-11-21T06:42:40;8.20;99.90
3256;DHT22;1640;48.504;9.224;2023-11-21T06:45:08;8.20;99.90
3256;DHT22;1640;48.504;9.224;2023-11-21T06:47:37;8.30;99.90
3256;DHT22;1640;48.504;9.224;2023-11-21T06:50:06;8.30;99.90
3256;DHT22;1640;48.504;9.224;2023-11-21T06:52:34;8.40;99.90
3256;DHT22;1640;48.504;9.224;2023-11-21T06:55:02;8.40;99.90
3256;DHT22;1640;48.504;9.224;2023-11-21T06:57:31;8.50;99.90
3256;DHT22;1640;48.504;9.224;2023-11-21T06:59:58;8.40;99.90
3256;DHT22;1640;48.504;9.224;2023-11-21T07:02:26;8.40;99.90
3256;DHT22;1640;48.504;9.224;2023-11-21T07:04:55;8.40;99.90
3256;DHT22;1640;48.504;9.224;2023-11-21T07:07:22;8.50;99.90
3256;DHT22;1640;48.504;9.224;2023-11-21T07:09:50;8.50;99.90
3256;DHT22;1640;48.504;9.224;2023-11-21T07:12:21;8.50;99.90
3256;DHT22;1640;48.504;9.224;2023-11-21T07:14:51;8.50;99.90
3256;DHT22;1640;48.504;9.224;2023-11-21T07:17:18;8.50;99.90
3256;DHT22;1640;48.504;9.224;2023-11-21T07:19:46;8.50;99.90
3256;DHT22;1640;48.504;9.224;2023-11-21T07:22:15;8.50;99.90
3256;DHT22;1640;48.504;9.224;2023-11-21T07:24:48;8.60;99.90
3256;DHT22;1640;48.504;9.224;2023-11-21T07:27:17;8.60;99.90
3256;DHT22;1640;48.504;9.224;2023-11-21T07:29:44;8.50;99.90
3256;DHT22;1640;48.504;9.224;2023-11-21T07:32:13;8.50;99.90
3256;DHT22;1640;48.504;9.224;2023-11-21T07:34:41;8.60;99.90
3256;DHT22;1640;48.504;9.224;2023-11-21T07:37:09;8.60;99.90
3256;DHT22;1640;48.504;9.224;2023-11-21T07:39:36;8.70;99.90
3256;DHT22;1640;48.504;9.224;2023-11-21T07:42:08;8.90;99.90
3256;DHT22;1640;48.504;9.224;2023-11-21T07:44:36;8.90;99.90
3256;DHT22;1640;48.504;9.224;2023-11-21T07:47:04;8.90;99.90
3256;DHT22;1640;48.504;9.224;2023-11-21T07:49:33;9.00;99.90
3256;DHT22;1640;48.504;9.224;2023-11-21T07:52:01;9.00;99.90
3256;DHT22;1640;48.504;9.224;2023-11-21T07:54:29;9.10;99.90
3256;DHT22;1640;48.504;9.224;2023-11-21T07:56:57;9.10;99.90
3256;DHT22;1640;48.504;9.224;2023-11-21T07:59:24;9.10;99.90
3256;DHT22;1640;48.504;9.224;2023-11-21T08:01:52;9.10;99.90
3256;DHT22;1640;48.504;9.224;2023-11-21T08:04:20;9.10;99.90
3256;DHT22;1640;48.504;9.224;2023-11-21T08:06:49;9.20;99.90
3256;DHT22;1640;48.504;9.224;2023-11-21T08:09:17;9.40;99.90
3256;DHT22;1640;48.504;9.224;2023-11-21T08:11:44;9.40;99.90
3256;DHT22;1640;48.504;9.224;2023-11-21T08:14:12;9.30;99.90
3256;DHT22;1640;48.504;9.224;2023-11-21T08:16:41;9.30;99.90
3256;DHT22;1640;48.504;9.224;2023-11-21T08:19:08;9.30;99.90
3256;DHT22;1640;48.504;9.224;2023-11-21T08:21:36;9.30;99.90
3256;DHT22;1640;48.504;9.224;2023-11-21T08:24:08;9.30;99.90
3256;DHT22;1640;48.504;9.224;2023-11-21T08:26:37;9.40;99.90
3256;DHT22;1640;48.504;9.224;2023-11-21T08:29:04;9.40;99.90
3256;DHT22;1640;48.504;9.224;2023-11-21T08:31:33;9.40;99.90
3256;DHT22;1640;48.504;9.224;2023-11-21T08:34:00;9.30;99.90
3256;DHT22;1640;48.504;9.224;2023-11-21T08:36:29;9.30;99.90
3256;DHT22;1640;48.504;9.224;2023-11-21T08:38:57;9.30;99.90
3256;DHT22;1640;48.504;9.224;2023-11-21T08:41:26;9.40;99.90
3256;DHT22;1640;48.504;9.224;2023-11-21T08:43:54;9.30;99.90
3256;DHT22;1640;48.504;9.224;2023-11-21T08:46:24;9.40;99.90
3256;DHT22;1640;48.504;9.224;2023-11-21T08:48:52;9.40;99.90
3256;DHT22;1640;48.504;9.224;2023-11-21T08:51:20;9.40;99.90
3256;DHT22;1640;48.504;9.224;2023-11-21T08:53:47;9.50;99.90
3256;DHT22;1640;48.504;9.224;2023-11-21T08:56:15;9.60;99.90
3256;DHT22;1640;48.504;9.224;2023-11-21T08:58:46;9.70;99.90
3256;DHT22;1640;48.504;9.224;2023-11-21T09:01:14;9.70;99.90
3256;DHT22;1640;48.504;9.224;2023-11-21T09:03:41;9.70;99.90
3256;DHT22;1640;48.504;9.224;2023-11-21T09:06:09;9.80;99.90
3256;DHT22;1640;48.504;9.224;2023-11-21T09:08:40;9.80;99.90
3256;DHT22;1640;48.504;9.224;2023-11-21T09:11:08;9.70;99.90
3256;DHT22;1640;48.504;9.224;2023-11-21T09:13:36;9.60;99.90
3256;DHT22;1640;48.504;9.224;2023-11-21T09:16:05;9.70;99.90
3256;DHT22;1640;48.504;9.224;2023-11-21T09:18:33;9.90;99.90
3256;DHT22;1640;48.504;9.224;2023-11-21T09:21:00;10.00;99.90
3256;DHT22;1640;48.504;9.224;2023-11-21T09:23:28;10.00;99.90
3256;DHT22;1640;48.504;9.224;2023-11-21T09:25:56;10.10;99.90
3256;DHT22;1640;48.504;9.224;2023-11-21T09:28:25;10.20;99.90
3256;DHT22;1640;48.504;9.224;2023-11-21T09:30:53;10.20;99.90
3256;DHT22;1640;48.504;9.224;2023-11-21T09:33:22;10.10;99.90
3256;DHT22;1640;48.504;9.224;2023-11-21T09:35:51;10.10;99.90
3256;DHT22;1640;48.504;9.224;2023-11-21T09:38:18;10.10;99.90
3256;DHT22;1640;48.504;9.224;2023-11-21T09:40:46;10.00;0.60
3256;DHT22;1640;48.504;9.224;2023-11-21T09:43:16;10.00;3.30
3256;DHT22;1640;48.504;9.224;2023-11-21T09:45:46;9.90;0.70
3256;DHT22;1640;48.504;9.224;2023-11-21T09:48:17;9.80;1.50
3256;DHT22;1640;48.504;9.224;2023-11-21T09:50:47;9.90;99.90
3256;DHT22;1640;48.504;9.224;2023-11-21T09:53:17;9.90;99.90
3256;DHT22;1640;48.504;9.224;2023-11-21T09:55:48;10.00;99.90
3256;DHT22;1640;48.504;9.224;2023-11-21T09:58:17;10.10;99.90
3256;DHT22;1640;48.504;9.224;2023-11-21T10:00:46;10.20;5.50
3256;DHT22;1640;48.504;9.224;2023-11-21T10:03:15;10.30;2.50
3256;DHT22;1640;48.504;9.224;2023-11-21T10:05:43;10.30;11.20
3256;DHT22;1640;48.504;9.224;2023-11-21T10:08:13;10.40;9.50
3256;DHT22;1640;48.504;9.224;2023-11-21T10:10:43;10.60;14.00
3256;DHT22;1640;48.504;9.224;2023-11-21T10:13:12;10.60;16.90
3256;DHT22;1640;48.504;9.224;2023-11-21T10:15:43;10.70;21.30
3256;DHT22;1640;48.504;9.224;2023-11-21T10:18:15;10.50;25.80
3256;DHT22;1640;48.504;9.224;2023-11-21T10:20:43;10.40;23.80
3256;DHT22;1640;48.504;9.224;2023-11-21T10:23:20;10.40;21.40
3256;DHT22;1640;48.504;9.224;2023-11-21T10:25:48;10.40;20.00
3256;DHT22;1640;48.504;9.224;2023-11-21T10:28:16;10.30;15.50
3256;DHT22;1640;48.504;9.224;2023-11-21T10:30:43;10.30;7.40
3256;DHT22;1640;48.504;9.224;2023-11-21T10:33:11;10.40;5.70
3256;DHT22;1640;48.504;9.224;2023-11-21T10:35:42;10.30;99.90
3256;DHT22;1640;48.504;9.224;2023-11-21T10:38:16;10.10;99.90
3256;DHT22;1640;48.504;9.224;2023-11-21T10:40:47;10.00;99.90
3256;DHT22;1640;48.504;9.224;2023-11-21T10:43:15;9.80;99.90
3256;DHT22;1640;48.504;9.224;2023-11-21T10:45:43;9.80;99.90
3256;DHT22;1640;48.504;9.224;2023-11-21T10:48:13;9.80;99.90
3256;DHT22;1640;48.504;9.224;2023-11-21T10:50:43;9.80;99.90
3256;DHT22;1640;48.504;9.224;2023-11-21T10:53:11;9.90;99.90
3256;DHT22;1640;48.504;9.224;2023-11-21T10:55:39;10.10;99.90
3256;DHT22;1640;48.504;9.224;2023-11-21T10:58:11;10.10;99.90
3256;DHT22;1640;48.504;9.224;2023-11-21T11:00:40;10.10;99.90
3256;DHT22;1640;48.504;9.224;2023-11-21T11:03:09;9.90;99.90
3256;DHT22;1640;48.504;9.224;2023-11-21T11:05:41;10.00;99.90
3256;DHT22;1640;48.504;9.224;2023-11-21T11:08:13;9.90;99.90
3256;DHT22;1640;48.504;9.224;2023-11-21T11:10:45;10.10;99.90
3256;DHT22;1640;48.504;9.224;2023-11-21T11:13:15;10.30;99.90
3256;DHT22;1640;48.504;9.224;2023-11-21T11:15:47;10.40;99.90
3256;DHT22;1640;48.504;9.224;2023-11-21T11:18:16;10.40;99.90
3256;DHT22;1640;48.504;9.224;2023-11-21T11:20:46;10.60;99.90
3256;DHT22;1640;48.504;9.224;2023-11-21T11:23:30;10.70;99.90
3256;DHT22;1640;48.504;9.224;2023-11-21T11:26:09;10.70;99.90
3256;DHT22;1640;48.504;9.224;2023-11-21T11:28:47;10.80;99.90
3256;DHT22;1640;48.504;9.224;2023-11-21T11:31:28;10.60;99.90
3256;DHT22;1640;48.504;9.224;2023-11-21T11:34:14;10.70;99.90
3256;DHT22;1640;48.504;9.224;2023-11-21T11:36:48;11.10;99.90
3256;DHT22;1640;48.504;9.224;2023-11-21T11:39:35;11.00;99.90
3256;DHT22;1640;48.504;9.224;2023-11-21T11:42:04;10.80;99.90
3256;DHT22;1640;48.504;9.224;2023-11-21T11:44:50;10.80;99.90
3256;DHT22;1640;48.504;9.224;2023-11-21T11:47:26;10.70;99.90
3256;DHT22;1640;48.504;9.224;2023-11-21T11:50:02;10.70;99.90
3256;DHT22;1640;48.504;9.224;2023-11-21T11:52:40;10.60;99.90
3256;DHT22;1640;48.504;9.224;2023-11-21T11:55:10;10.40;99.90
3256;DHT22;1640;48.504;9.224;2023-11-21T11:57:39;10.30;99.90
3256;DHT22;1640;48.504;9.224;2023-11-21T12:00:13;10.10;99.90
3256;DHT22;1640;48.504;9.224;2023-11-21T12:02:45;10.00;99.90
3256;DHT22;1640;48.504;9.224;2023-11-21T12:05:14;9.90;99.90
3256;DHT22;1640;48.504;9.224;2023-11-21T12:07:46;9.80;99.90
3256;DHT22;1640;48.504;9.224;2023-11-21T12:10:15;9.80;99.90
3256;DHT22;1640;48.504;9.224;2023-11-21T12:12:45;9.80;99.90
3256;DHT22;1640;48.504;9.224;2023-11-21T12:15:15;9.70;99.90
3256;DHT22;1640;48.504;9.224;2023-11-21T12:17:44;9.60;99.90
3256;DHT22;1640;48.504;9.224;2023-11-21T12:20:12;9.50;99.90
3256;DHT22;1640;48.504;9.224;2023-11-21T12:22:47;9.60;99.90
3256;DHT22;1640;48.504;9.224;2023-11-21T12:25:15;9.60;99.90
3256;DHT22;1640;48.504;9.224;2023-11-21T12:27:45;9.50;99.90
3256;DHT22;1640;48.504;9.224;2023-11-21T12:30:17;9.60;99.90
3256;DHT22;1640;48.504;9.224;2023-11-21T12:32:50;9.70;99.90
3256;DHT22;1640;48.504;9.224;2023-11-21T12:35:23;9.80;99.90
3256;DHT22;1640;48.504;9.224;2023-11-21T12:37:51;9.90;99.90
3256;DHT22;1640;48.504;9.224;2023-11-21T12:40:20;10.00;99.90
3256;DHT22;1640;48.504;9.224;2023-11-21T12:42:50;10.00;99.90
3256;DHT22;1640;48.504;9.224;2023-11-21T12:45:21;10.00;99.90
3256;DHT22;1640;48.504;9.224;2023-11-21T12:47:53;10.00;99.90
3256;DHT22;1640;48.504;9.224;2023-11-21T12:50:23;10.00;99.90
3256;DHT22;1640;48.504;9.224;2023-11-21T12:52:58;10.10;99.90
3256;DHT22;1640;48.504;9.224;2023-11-21T12:55:29;10.00;99.90
3256;DHT22;1640;48.504;9.224;2023-11-21T12:57:57;9.90;99.90
3256;DHT22;1640;48.504;9.224;2023-11-21T13:00:31;9.80;99.90
3256;DHT22;1640;48.504;9.224;2023-11-21T13:03:04;9.70;99.90
3256;DHT22;1640;48.504;9.224;2023-11-21T13:05:34;9.80;99.90
3256;DHT22;1640;48.504;9.224;2023-11-21T13:08:06;9.70;99.90
3256;DHT22;1640;48.504;9.224;2023-11-21T13:10:36;9.70;99.90
3256;DHT22;1640;48.504;9.224;2023-11-21T13:13:06;9.60;99.90
3256;DHT22;1640;48.504;9.224;2023-11-21T13:15:39;9.70;99.90
3256;DHT22;1640;48.504;9.224;2023-11-21T13:18:07;9.70;99.90
3256;DHT22;1640;48.504;9.224;2023-11-21T13:20:37;9.90;99.90
3256;DHT22;1640;48.504;9.224;2023-11-21T13:23:10;9.90;99.90
3256;DHT22;1640;48.504;9.224;2023-11-21T13:25:39;10.00;99.90
3256;DHT22;1640;48.504;9.224;2023-11-21T13:28:17;10.10;99.90
3256;DHT22;1640;48.504;9.224;2023-11-21T13:30:52;10.20;99.90
3256;DHT22;1640;48.504;9.224;2023-11-21T13:33:29;10.30;99.90
3256;DHT22;1640;48.504;9.224;2023-11-21T13:35:57;10.50;99.90
3256;DHT22;1640;48.504;9.224;2023-11-21T13:38:25;10.70;99.90
3256;DHT22;1640;48.504;9.224;2023-11-21T13:40:58;10.80;99.90
3256;DHT22;1640;48.504;9.224;2023-11-21T13:43:28;10.90;99.90
3256;DHT22;1640;48.504;9.224;2023-11-21T13:46:01;11.00;99.90
3256;DHT22;1640;48.504;9.224;2023-11-21T13:48:36;11.10;99.90
3256;DHT22;1640;48.504;9.224;2023-11-21T13:51:08;11.10;99.90
3256;DHT22;1640;48.504;9.224;2023-11-21T13:53:53;11.00;99.90
3256;DHT22;1640;48.504;9.224;2023-11-21T13:56:21;11.00;99.90
3256;DHT22;1640;48.504;9.224;2023-11-21T14:02:27;11.10;99.90
3256;DHT22;1640;48.504;9.224;2023-11-21T14:07:41;10.90;99.90
3256;DHT22;1640;48.504;9.224;2023-11-21T14:10:14;10.90;99.90
3256;DHT22;1640;48.504;9.224;2023-11-21T14:12:42;10.80;99.90
3256;DHT22;1640;48.504;9.224;2023-11-21T14:15:10;10.70;99.90
3256;DHT22;1640;48.504;9.224;2023-11-21T14:17:44;10.60;99.90
3256;DHT22;1640;48.504;9.224;2023-11-21T14:20:12;10.50;99.90
3256;DHT22;1640;48.504;9.224;2023-11-21T14:22:42;10.50;99.90
3256;DHT22;1640;48.504;9.224;2023-11-21T14:25:09;10.40;99.90
3256;DHT22;1640;48.504;9.224;2023-11-21T14:27:38;10.40;99.90
3256;DHT22;1640;48.504;9.224;2023-11-21T14:30:07;10.30;99.90
3256;DHT22;1640;48.504;9.224;2023-11-21T14:32:38;10.30;99.90
3256;DHT22;1640;48.504;9.224;2023-11-21T14:35:08;10.30;99.90
3256;DHT22;1640;48.504;9.224;2023-11-21T14:37:36;10.30;99.90
3256;DHT22;1640;48.504;9.224;2023-11-21T14:40:04;10.30;99.90
3256;DHT22;1640;48.504;9.224;2023-11-21T14:42:33;10.30;99.90
3256;DHT22;1640;48.504;9.224;2023-11-21T14:45:06;10.20;99.90
3256;DHT22;1640;48.504;9.224;2023-11-21T14:47:34;10.20;99.90
3256;DHT22;1640;48.504;9.224;2023-11-21T14:50:06;10.20;99.90
3256;DHT22;1640;48.504;9.224;2023-11-21T14:52:54;10.10;99.90
3256;DHT22;1640;48.504;9.224;2023-11-21T14:55:25;10.10;99.90
3256;DHT22;1640;48.504;9.224;2023-11-21T14:57:58;10.10;99.90
3256;DHT22;1640;48.504;9.224;2023-11-21T15:00:29;10.10;99.90
3256;DHT22;1640;48.504;9.224;2023-11-21T15:03:11;10.00;99.90
3256;DHT22;1640;48.504;9.224;2023-11-21T15:05:54;10.00;99.90
3256;DHT22;1640;48.504;9.224;2023-11-21T15:08:22;9.90;99.90
3256;DHT22;1640;48.504;9.224;2023-11-21T15:10:53;9.80;99.90
3256;DHT22;1640;48.504;9.224;2023-11-21T15:13:22;9.60;99.90
3256;DHT22;1640;48.504;9.224;2023-11-21T15:15:51;9.70;99.90
3256;DHT22;1640;48.504;9.224;2023-11-21T15:18:20;9.60;99.90
3256;DHT22;1640;48.504;9.224;2023-11-21T15:20:48;9.50;99.90
3256;DHT22;1640;48.504;9.224;2023-11-21T15:23:17;9.40;99.90
3256;DHT22;1640;48.504;9.224;2023-11-21T15:25:45;9.20;99.90
3256;DHT22;1640;48.504;9.224;2023-11-21T15:28:13;9.20;99.90
3256;DHT22;1640;48.504;9.224;2023-11-21T15:30:40;9.00;99.90
3256;DHT22;1640;48.504;9.224;2023-11-21T15:33:08;8.90;99.90
3256;DHT22;1640;48.504;9.224;2023-11-21T15:35:36;8.70;99.90
3256;DHT22;1640;48.504;9.224;2023-11-21T15:38:07;8.70;99.90
3256;DHT22;1640;48.504;9.224;2023-11-21T15:40:36;8.60;99.90
3256;DHT22;1640;48.504;9.224;2023-11-21T15:43:04;8.60;99.90
3256;DHT22;1640;48.504;9.224;2023-11-21T15:45:33;8.60;99.90
3256;DHT22;1640;48.504;9.224;2023-11-21T15:48:00;8.60;99.90
3256;DHT22;1640;48.504;9.224;2023-11-21T15:50:29;8.50;99.90
3256;DHT22;1640;48.504;9.224;2023-11-21T15:52:58;8.60;99.90
3256;DHT22;1640;48.504;9.224;2023-11-21T15:55:26;8.50;99.90
3256;DHT22;1640;48.504;9.224;2023-11-21T15:57:55;8.50;99.90
3256;DHT22;1640;48.504;9.224;2023-11-21T16:00:23;8.50;99.90
3256;DHT22;1640;48.504;9.224;2023-11-21T16:02:51;8.50;99.90
3256;DHT22;1640;48.504;9.224;2023-11-21T16:05:20;8.60;99.90
3256;DHT22;1640;48.504;9.224;2023-11-21T16:07:48;8.50;99.90
3256;DHT22;1640;48.504;9.224;2023-11-21T16:10:16;8.60;99.90
3256;DHT22;1640;48.504;9.224;2023-11-21T16:12:45;8.60;99.90
3256;DHT22;1640;48.504;9.224;2023-11-21T16:15:14;8.60;99.90
3256;DHT22;1640;48.504;9.224;2023-11-21T16:17:44;8.60;99.90
3256;DHT22;1640;48.504;9.224;2023-11-21T16:20:12;8.60;99.90
3256;DHT22;1640;48.504;9.224;2023-11-21T16:22:41;8.60;99.90
3256;DHT22;1640;48.504;9.224;2023-11-21T16:25:09;8.60;99.90
3256;DHT22;1640;48.504;9.224;2023-11-21T16:27:39;8.50;99.90
3256;DHT22;1640;48.504;9.224;2023-11-21T16:30:09;8.60;99.90
3256;DHT22;1640;48.504;9.224;2023-11-21T16:32:38;8.50;99.90
3256;DHT22;1640;48.504;9.224;2023-11-21T16:35:07;8.50;99.90